createdAt,value
2018-09-09T00:00:47.722Z,16.01
2018-09-09T00:01:47.711Z,16.04
2018-09-09T00:02:47.700Z,16.02
2018-09-09T00:03:47.688Z,16.00
2018-09-09T00:04:47.683Z,15.97
2018-09-09T00:05:47.677Z,15.97
2018-09-09T00:06:47.663Z,16.00
2018-09-09T00:07:47.656Z,15.93
2018-09-09T00:08:47.647Z,15.94
2018-09-09T00:09:47.640Z,15.94
2018-09-09T00:10:47.624Z,15.93
2018-09-09T00:11:47.618Z,15.90
2018-09-09T00:12:47.606Z,15.90
2018-09-09T00:13:47.599Z,15.94
2018-09-09T00:14:47.590Z,15.97
2018-09-09T00:15:47.580Z,15.90
2018-09-09T00:16:47.571Z,15.84
2018-09-09T00:17:47.559Z,15.94
2018-09-09T00:18:47.549Z,15.84
2018-09-09T00:19:47.544Z,16.01
2018-09-09T00:20:47.531Z,15.96
2018-09-09T00:21:47.521Z,15.92
2018-09-09T00:22:47.511Z,15.94
2018-09-09T00:23:47.508Z,15.82
2018-09-09T00:24:47.492Z,15.72
2018-09-09T00:25:47.482Z,15.82
2018-09-09T00:26:47.472Z,15.74
2018-09-09T00:27:47.464Z,15.62
2018-09-09T00:28:47.451Z,15.64
2018-09-09T00:29:47.448Z,15.56
2018-09-09T00:30:47.433Z,15.59
2018-09-09T00:31:47.423Z,15.54
2018-09-09T00:32:47.419Z,15.51
2018-09-09T00:33:47.407Z,15.65
2018-09-09T00:34:47.397Z,15.60
2018-09-09T00:35:47.389Z,15.65
2018-09-09T00:36:47.375Z,15.65
2018-09-09T00:37:47.367Z,15.67
2018-09-09T00:38:47.358Z,15.65
2018-09-09T00:39:47.350Z,15.65
2018-09-09T00:40:47.338Z,15.60
2018-09-09T00:41:47.329Z,15.65
2018-09-09T00:42:47.320Z,15.68
2018-09-09T00:43:47.316Z,15.69
2018-09-09T00:44:47.309Z,15.62
2018-09-09T00:45:47.291Z,15.65
2018-09-09T00:46:47.285Z,15.68
2018-09-09T00:47:47.269Z,15.64
2018-09-09T00:48:47.266Z,15.68
2018-09-09T00:49:47.253Z,15.64
2018-09-09T00:50:47.240Z,15.68
2018-09-09T00:51:47.229Z,15.67
2018-09-09T00:52:47.222Z,15.65
2018-09-09T00:53:47.214Z,15.65
2018-09-09T00:54:47.202Z,15.65
2018-09-09T00:55:47.196Z,15.64
2018-09-09T00:56:47.181Z,15.67
2018-09-09T00:57:47.180Z,15.59
2018-09-09T00:58:47.163Z,15.68
2018-09-09T00:59:47.158Z,15.69
2018-09-09T01:00:47.155Z,15.65
2018-09-09T01:01:47.140Z,15.67
2018-09-09T01:02:47.129Z,15.71
2018-09-09T01:03:47.119Z,15.60
2018-09-09T01:04:47.106Z,15.57
2018-09-09T01:05:47.093Z,15.72
2018-09-09T01:06:47.088Z,15.65
2018-09-09T01:07:47.081Z,15.64
2018-09-09T01:08:47.068Z,15.62
2018-09-09T01:09:47.058Z,15.67
2018-09-09T01:10:47.049Z,15.62
2018-09-09T01:11:47.039Z,15.68
2018-09-09T01:12:47.031Z,15.69
2018-09-09T01:13:47.024Z,15.57
2018-09-09T01:14:47.012Z,15.54
2018-09-09T01:15:46.999Z,15.62
2018-09-09T01:16:46.993Z,15.57
2018-09-09T01:17:46.981Z,15.56
2018-09-09T01:18:46.970Z,15.71
2018-09-09T01:19:46.966Z,15.64
2018-09-09T01:20:46.954Z,15.65
2018-09-09T01:21:46.948Z,15.64
2018-09-09T01:22:46.934Z,15.67
2018-09-09T01:23:46.927Z,15.62
2018-09-09T01:24:46.916Z,15.65
2018-09-09T01:25:46.904Z,15.72
2018-09-09T01:26:46.894Z,15.62
2018-09-09T01:27:46.885Z,15.64
2018-09-09T01:28:46.872Z,15.67
2018-09-09T01:29:46.872Z,15.59
2018-09-09T01:30:46.852Z,15.65
2018-09-09T01:31:46.847Z,15.57
2018-09-09T01:32:46.839Z,15.46
2018-09-09T01:33:46.824Z,15.46
2018-09-09T01:34:46.819Z,15.50
2018-09-09T01:35:46.806Z,15.50
2018-09-09T01:36:46.796Z,15.38
2018-09-09T01:37:46.792Z,15.46
2018-09-09T01:38:46.778Z,15.35
2018-09-09T01:39:46.773Z,15.44
2018-09-09T01:40:46.759Z,15.47
2018-09-09T01:41:46.754Z,15.43
2018-09-09T01:42:46.735Z,15.41
2018-09-09T01:43:46.731Z,15.43
2018-09-09T01:44:46.718Z,15.50
2018-09-09T01:45:46.711Z,15.46
2018-09-09T01:46:46.700Z,15.44
2018-09-09T01:47:46.692Z,15.46
2018-09-09T01:48:46.680Z,15.49
2018-09-09T01:49:46.668Z,15.46
2018-09-09T01:50:46.656Z,15.41
2018-09-09T01:51:46.649Z,15.47
2018-09-09T01:52:46.647Z,15.44
2018-09-09T01:53:46.629Z,15.39
2018-09-09T01:54:46.617Z,15.41
2018-09-09T01:55:46.611Z,15.41
2018-09-09T01:56:46.603Z,15.43
2018-09-09T01:57:46.593Z,15.41
2018-09-09T01:58:46.577Z,15.46
2018-09-09T01:59:46.576Z,15.46
2018-09-09T02:00:46.562Z,15.47
2018-09-09T02:01:46.554Z,15.43
2018-09-09T02:02:46.544Z,15.50
2018-09-09T02:03:46.538Z,15.56
2018-09-09T02:04:46.526Z,15.50
2018-09-09T02:05:46.512Z,15.59
2018-09-09T02:06:46.508Z,15.39
2018-09-09T02:07:46.493Z,15.47
2018-09-09T02:08:46.485Z,15.41
2018-09-09T02:09:46.477Z,15.39
2018-09-09T02:10:46.459Z,15.35
2018-09-09T02:11:46.460Z,15.44
2018-09-09T02:12:46.448Z,15.35
2018-09-09T02:13:46.443Z,15.36
2018-09-09T02:14:46.427Z,15.39
2018-09-09T02:15:46.415Z,15.39
2018-09-09T02:16:46.405Z,15.44
2018-09-09T02:17:46.394Z,15.46
2018-09-09T02:18:46.383Z,15.35
2018-09-09T02:19:46.375Z,15.36
2018-09-09T02:20:46.369Z,15.29
2018-09-09T02:21:46.355Z,15.34
2018-09-09T02:22:46.349Z,15.27
2018-09-09T02:23:46.336Z,15.27
2018-09-09T02:24:46.324Z,15.28
2018-09-09T02:25:46.326Z,15.34
2018-09-09T02:26:46.308Z,15.31
2018-09-09T02:27:46.298Z,15.23
2018-09-09T02:28:46.287Z,15.25
2018-09-09T02:29:46.291Z,15.27
2018-09-09T02:30:46.269Z,15.28
2018-09-09T02:31:46.251Z,15.21
2018-09-09T02:32:46.251Z,15.20
2018-09-09T02:33:46.250Z,15.28
2018-09-09T02:34:46.229Z,15.23
2018-09-09T02:35:46.223Z,15.19
2018-09-09T02:36:46.205Z,15.25
2018-09-09T02:37:46.201Z,15.20
2018-09-09T02:38:46.187Z,15.16
2018-09-09T02:39:46.183Z,15.19
2018-09-09T02:40:46.168Z,15.21
2018-09-09T02:41:46.161Z,15.17
2018-09-09T02:42:46.150Z,15.16
2018-09-09T02:43:46.186Z,15.13
2018-09-09T02:44:46.131Z,15.16
2018-09-09T02:45:46.124Z,15.14
2018-09-09T02:46:46.106Z,15.13
2018-09-09T02:47:46.099Z,15.10
2018-09-09T02:48:46.091Z,15.07
2018-09-09T02:49:46.081Z,15.02
2018-09-09T02:50:46.076Z,15.13
2018-09-09T02:51:46.065Z,15.17
2018-09-09T02:52:46.055Z,15.13
2018-09-09T02:53:46.044Z,15.16
2018-09-09T02:54:46.035Z,15.09
2018-09-09T02:55:46.028Z,15.06
2018-09-09T02:56:46.016Z,15.19
2018-09-09T02:57:46.000Z,15.14
2018-09-09T02:58:45.991Z,15.06
2018-09-09T02:59:45.983Z,15.11
2018-09-09T03:00:45.968Z,15.09
2018-09-09T03:01:45.963Z,15.11
2018-09-09T03:02:45.951Z,15.02
2018-09-09T03:03:45.937Z,15.10
2018-09-09T03:04:45.928Z,15.10
2018-09-09T03:05:45.922Z,15.06
2018-09-09T03:06:45.912Z,15.09
2018-09-09T03:07:45.899Z,15.10
2018-09-09T03:08:45.887Z,15.03
2018-09-09T03:09:45.881Z,14.96
2018-09-09T03:10:45.869Z,14.99
2018-09-09T03:11:45.856Z,15.01
2018-09-09T03:12:45.852Z,14.98
2018-09-09T03:13:45.843Z,14.96
2018-09-09T03:14:45.832Z,14.98
2018-09-09T03:15:45.825Z,14.94
2018-09-09T03:16:45.813Z,14.92
2018-09-09T03:17:45.803Z,14.92
2018-09-09T03:18:45.791Z,14.92
2018-09-09T03:19:45.785Z,14.94
2018-09-09T03:20:45.774Z,14.96
2018-09-09T03:21:45.763Z,14.92
2018-09-09T03:22:45.754Z,14.96
2018-09-09T03:23:45.738Z,14.96
2018-09-09T03:24:45.734Z,14.91
2018-09-09T03:25:45.726Z,14.92
2018-09-09T03:26:45.710Z,14.91
2018-09-09T03:27:45.701Z,14.94
2018-09-09T03:28:45.755Z,14.91
2018-09-09T03:29:45.681Z,14.96
2018-09-09T03:30:45.671Z,14.92
2018-09-09T03:31:45.661Z,14.95
2018-09-09T03:32:45.649Z,14.91
2018-09-09T03:33:45.639Z,14.96
2018-09-09T03:34:45.631Z,14.95
2018-09-09T03:35:45.623Z,14.96
2018-09-09T03:36:45.614Z,14.95
2018-09-09T03:37:45.598Z,14.92
2018-09-09T03:38:45.594Z,14.95
2018-09-09T03:39:45.586Z,14.86
2018-09-09T03:40:45.570Z,14.84
2018-09-09T03:41:45.620Z,14.88
2018-09-09T03:42:45.548Z,14.86
2018-09-09T03:43:45.544Z,14.83
2018-09-09T03:44:45.533Z,14.77
2018-09-09T03:45:45.515Z,14.80
2018-09-09T03:46:45.510Z,14.78
2018-09-09T03:47:45.501Z,14.83
2018-09-09T03:48:45.495Z,14.86
2018-09-09T03:49:45.481Z,14.88
2018-09-09T03:50:45.470Z,14.89
2018-09-09T03:51:45.458Z,14.81
2018-09-09T03:52:45.450Z,14.80
2018-09-09T03:53:45.442Z,14.77
2018-09-09T03:54:45.428Z,14.78
2018-09-09T03:55:45.423Z,14.69
2018-09-09T03:56:45.407Z,14.75
2018-09-09T03:57:45.402Z,14.77
2018-09-09T03:58:45.393Z,14.69
2018-09-09T03:59:45.379Z,14.70
2018-09-09T04:00:45.369Z,14.72
2018-09-09T04:01:45.353Z,14.68
2018-09-09T04:02:45.349Z,14.75
2018-09-09T04:03:45.340Z,14.64
2018-09-09T04:04:45.327Z,14.69
2018-09-09T04:05:45.321Z,14.65
2018-09-09T04:06:45.305Z,14.61
2018-09-09T04:07:45.298Z,14.57
2018-09-09T04:08:45.286Z,14.47
2018-09-09T04:09:45.282Z,14.51
2018-09-09T04:10:45.270Z,14.52
2018-09-09T04:11:45.260Z,14.47
2018-09-09T04:12:45.284Z,14.58
2018-09-09T04:13:45.238Z,14.58
2018-09-09T04:14:45.228Z,14.60
2018-09-09T04:15:45.215Z,14.58
2018-09-09T04:16:45.211Z,14.54
2018-09-09T04:17:45.195Z,14.54
2018-09-09T04:18:45.183Z,14.52
2018-09-09T04:19:45.176Z,14.55
2018-09-09T04:20:45.162Z,14.57
2018-09-09T04:21:45.159Z,14.51
2018-09-09T04:22:45.146Z,14.58
2018-09-09T04:23:45.133Z,14.58
2018-09-09T04:24:45.127Z,14.62
2018-09-09T04:25:45.116Z,14.60
2018-09-09T04:26:45.106Z,14.62
2018-09-09T04:27:45.094Z,14.64
2018-09-09T04:28:45.084Z,14.62
2018-09-09T04:29:45.074Z,14.60
2018-09-09T04:30:45.086Z,14.55
2018-09-09T04:31:45.057Z,14.51
2018-09-09T04:32:45.043Z,14.51
2018-09-09T04:33:45.032Z,14.46
2018-09-09T04:34:45.023Z,14.50
2018-09-09T04:35:45.013Z,14.50
2018-09-09T04:36:45.006Z,14.45
2018-09-09T04:37:44.990Z,14.45
2018-09-09T04:38:44.985Z,14.42
2018-09-09T04:39:44.971Z,14.40
2018-09-09T04:40:44.965Z,14.43
2018-09-09T04:41:44.953Z,14.45
2018-09-09T04:42:44.944Z,14.50
2018-09-09T04:43:44.930Z,14.37
2018-09-09T04:44:44.924Z,14.39
2018-09-09T04:45:44.910Z,14.39
2018-09-09T04:46:44.901Z,14.25
2018-09-09T04:47:44.886Z,14.39
2018-09-09T04:48:44.876Z,14.45
2018-09-09T04:49:44.874Z,14.37
2018-09-09T04:50:44.861Z,14.33
2018-09-09T04:51:44.852Z,14.32
2018-09-09T04:52:44.836Z,14.35
2018-09-09T04:53:44.829Z,14.25
2018-09-09T04:54:44.821Z,14.28
2018-09-09T04:55:44.808Z,14.39
2018-09-09T04:56:44.796Z,14.22
2018-09-09T04:57:44.790Z,14.24
2018-09-09T04:58:44.780Z,14.22
2018-09-09T04:59:44.769Z,14.37
2018-09-09T05:00:44.755Z,14.28
2018-09-09T05:01:44.749Z,14.35
2018-09-09T05:02:44.741Z,14.32
2018-09-09T05:03:44.724Z,14.33
2018-09-09T05:04:44.717Z,14.35
2018-09-09T05:05:44.704Z,14.37
2018-09-09T05:06:44.700Z,14.37
2018-09-09T05:07:44.684Z,14.35
2018-09-09T05:08:44.679Z,14.37
2018-09-09T05:09:44.660Z,14.35
2018-09-09T05:10:44.652Z,14.43
2018-09-09T05:11:44.649Z,14.33
2018-09-09T05:12:44.635Z,14.43
2018-09-09T05:13:44.623Z,14.33
2018-09-09T05:14:44.609Z,14.42
2018-09-09T05:15:44.603Z,14.42
2018-09-09T05:16:44.598Z,14.45
2018-09-09T05:17:44.582Z,14.36
2018-09-09T05:18:44.567Z,14.45
2018-09-09T05:19:44.556Z,14.43
2018-09-09T05:20:44.546Z,14.43
2018-09-09T05:21:44.537Z,14.45
2018-09-09T05:22:44.528Z,14.42
2018-09-09T05:23:44.518Z,14.46
2018-09-09T05:24:44.506Z,14.46
2018-09-09T05:25:44.504Z,14.40
2018-09-09T05:26:44.486Z,14.39
2018-09-09T05:27:44.481Z,14.43
2018-09-09T05:28:44.465Z,14.47
2018-09-09T05:29:44.454Z,14.47
2018-09-09T05:30:44.444Z,14.43
2018-09-09T05:31:44.432Z,14.46
2018-09-09T05:32:44.426Z,14.46
2018-09-09T05:33:44.418Z,14.50
2018-09-09T05:34:44.395Z,14.52
2018-09-09T05:35:44.393Z,14.54
2018-09-09T05:36:44.387Z,14.52
2018-09-09T05:37:44.374Z,14.54
2018-09-09T05:38:44.364Z,14.60
2018-09-09T05:39:44.354Z,14.57
2018-09-09T05:40:44.342Z,14.55
2018-09-09T05:41:44.336Z,14.55
2018-09-09T05:42:44.322Z,14.61
2018-09-09T05:43:44.310Z,14.62
2018-09-09T05:44:44.388Z,14.61
2018-09-09T05:45:44.289Z,14.61
2018-09-09T05:46:44.280Z,14.62
2018-09-09T05:47:44.267Z,14.58
2018-09-09T05:48:44.259Z,14.61
2018-09-09T05:49:44.247Z,14.57
2018-09-09T05:50:44.240Z,14.57
2018-09-09T05:51:44.231Z,14.57
2018-09-09T05:52:44.220Z,14.57
2018-09-09T05:53:44.214Z,14.58
2018-09-09T05:54:44.194Z,14.64
2018-09-09T05:55:44.187Z,14.65
2018-09-09T05:56:44.180Z,14.57
2018-09-09T05:57:44.163Z,14.64
2018-09-09T05:58:44.154Z,14.60
2018-09-09T05:59:44.145Z,14.62
2018-09-09T06:00:44.132Z,14.68
2018-09-09T06:01:44.128Z,14.54
2018-09-09T06:02:44.115Z,14.57
2018-09-09T06:03:44.101Z,14.60
2018-09-09T06:04:44.095Z,14.58
2018-09-09T06:05:44.082Z,14.55
2018-09-09T06:06:44.074Z,14.62
2018-09-09T06:07:44.064Z,14.60
2018-09-09T06:08:44.056Z,14.58
2018-09-09T06:09:44.043Z,14.61
2018-09-09T06:10:44.033Z,14.61
2018-09-09T06:11:44.018Z,14.61
2018-09-09T06:12:44.015Z,14.61
2018-09-09T06:13:43.998Z,14.64
2018-09-09T06:14:43.990Z,14.60
2018-09-09T06:15:43.981Z,14.62
2018-09-09T06:16:43.972Z,14.57
2018-09-09T06:17:43.959Z,14.60
2018-09-09T06:18:43.949Z,14.58
2018-09-09T06:19:43.940Z,14.68
2018-09-09T06:20:43.926Z,14.69
2018-09-09T06:21:43.916Z,14.61
2018-09-09T06:22:43.911Z,14.64
2018-09-09T06:23:43.900Z,14.68
2018-09-09T06:24:43.888Z,14.73
2018-09-09T06:25:43.878Z,14.68
2018-09-09T06:26:43.867Z,14.81
2018-09-09T06:27:43.855Z,14.70
2018-09-09T06:28:43.847Z,14.65
2018-09-09T06:29:43.840Z,14.68
2018-09-09T06:30:43.826Z,14.62
2018-09-09T06:31:43.817Z,14.72
2018-09-09T06:32:43.802Z,14.72
2018-09-09T06:33:43.831Z,14.73
2018-09-09T06:34:43.781Z,14.73
2018-09-09T06:35:43.776Z,14.77
2018-09-09T06:36:43.760Z,14.75
2018-09-09T06:37:43.758Z,14.78
2018-09-09T06:38:43.742Z,14.86
2018-09-09T06:39:43.732Z,14.89
2018-09-09T06:40:43.724Z,14.95
2018-09-09T06:41:43.710Z,15.06
2018-09-09T06:42:43.715Z,15.09
2018-09-09T06:43:43.691Z,15.21
2018-09-09T06:44:43.694Z,15.19
2018-09-09T06:45:43.674Z,15.35
2018-09-09T06:46:43.664Z,15.39
2018-09-09T06:47:43.654Z,15.47
2018-09-09T06:48:43.639Z,15.54
2018-09-09T06:49:43.631Z,15.56
2018-09-09T06:50:43.618Z,15.65
2018-09-09T06:51:43.610Z,15.69
2018-09-09T06:52:43.598Z,15.78
2018-09-09T06:53:43.588Z,15.86
2018-09-09T06:54:43.583Z,15.97
2018-09-09T06:55:43.572Z,16.04
2018-09-09T06:56:43.562Z,16.09
2018-09-09T06:57:43.549Z,16.17
2018-09-09T06:58:43.538Z,16.25
2018-09-09T06:59:43.532Z,16.33
2018-09-09T07:00:43.523Z,16.43
2018-09-09T07:01:43.516Z,16.46
2018-09-09T07:02:43.507Z,16.60
2018-09-09T07:03:43.486Z,16.68
2018-09-09T07:04:43.480Z,16.75
2018-09-09T07:05:43.475Z,16.85
2018-09-09T07:06:43.465Z,16.96
2018-09-09T07:07:43.450Z,16.98
2018-09-09T07:08:43.444Z,17.12
2018-09-09T07:09:43.432Z,17.19
2018-09-09T07:10:43.458Z,17.22
2018-09-09T07:11:43.782Z,17.26
2018-09-09T07:12:43.408Z,17.28
2018-09-09T07:13:43.398Z,17.40
2018-09-09T07:14:43.392Z,17.52
2018-09-09T07:15:43.375Z,17.46
2018-09-09T07:16:43.365Z,17.58
2018-09-09T07:17:43.361Z,17.72
2018-09-09T07:18:43.348Z,17.72
2018-09-09T07:19:43.338Z,17.79
2018-09-09T07:20:43.331Z,17.79
2018-09-09T07:21:43.323Z,17.92
2018-09-09T07:22:43.368Z,17.97
2018-09-09T07:23:43.303Z,18.03
2018-09-09T07:24:43.293Z,18.02
2018-09-09T07:25:43.283Z,18.10
2018-09-09T07:26:43.270Z,18.15
2018-09-09T07:27:43.270Z,18.30
2018-09-09T07:28:43.259Z,18.32
2018-09-09T07:29:43.247Z,18.36
2018-09-09T07:30:43.240Z,18.45
2018-09-09T07:31:43.234Z,18.50
2018-09-09T07:32:43.227Z,18.57
2018-09-09T07:33:43.217Z,18.70
2018-09-09T07:34:43.205Z,18.76
2018-09-09T07:35:43.201Z,18.72
2018-09-09T07:36:43.182Z,18.82
2018-09-09T07:37:43.180Z,18.82
2018-09-09T07:38:43.168Z,18.90
2018-09-09T07:39:43.156Z,18.92
2018-09-09T07:40:43.150Z,18.95
2018-09-09T07:41:43.140Z,18.98
2018-09-09T07:42:43.134Z,18.98
2018-09-09T07:43:43.128Z,19.08
2018-09-09T07:44:43.117Z,19.13
2018-09-09T07:45:43.110Z,19.19
2018-09-09T07:46:43.101Z,19.31
2018-09-09T07:47:43.094Z,19.33
2018-09-09T07:48:43.083Z,19.41
2018-09-09T07:49:43.075Z,19.37
2018-09-09T07:50:43.124Z,19.39
2018-09-09T07:51:43.057Z,19.47
2018-09-09T07:52:43.048Z,19.41
2018-09-09T07:53:43.042Z,19.46
2018-09-09T07:54:43.036Z,19.62
2018-09-09T07:55:43.023Z,19.63
2018-09-09T07:56:43.017Z,19.71
2018-09-09T07:57:43.009Z,19.73
2018-09-09T07:58:42.999Z,19.86
2018-09-09T07:59:42.993Z,19.84
2018-09-09T08:00:42.988Z,19.91
2018-09-09T08:01:42.983Z,19.99
2018-09-09T08:02:42.964Z,19.96
2018-09-09T08:03:42.958Z,19.96
2018-09-09T08:04:42.950Z,20.08
2018-09-09T08:05:42.942Z,20.18
2018-09-09T08:06:42.937Z,20.26
2018-09-09T08:07:42.926Z,20.23
2018-09-09T08:08:42.925Z,20.29
2018-09-09T08:09:42.915Z,20.31
2018-09-09T08:10:42.910Z,20.36
2018-09-09T08:11:42.900Z,20.39
2018-09-09T08:12:42.887Z,20.47
2018-09-09T08:13:42.883Z,20.54
2018-09-09T08:14:42.877Z,20.58
2018-09-09T08:15:42.861Z,20.61
2018-09-09T08:16:42.854Z,20.69
2018-09-09T08:17:42.864Z,20.85
2018-09-09T08:18:42.842Z,20.88
2018-09-09T08:19:42.834Z,20.80
2018-09-09T08:20:42.830Z,20.88
2018-09-09T08:21:42.822Z,20.82
2018-09-09T08:22:42.810Z,20.85
2018-09-09T08:23:42.838Z,20.88
2018-09-09T08:24:42.803Z,20.97
2018-09-09T08:25:42.791Z,21.04
2018-09-09T08:26:42.781Z,21.14
2018-09-09T08:27:42.781Z,21.13
2018-09-09T08:28:42.767Z,21.21
2018-09-09T08:29:42.766Z,21.29
2018-09-09T08:30:42.748Z,21.32
2018-09-09T08:31:42.746Z,21.37
2018-09-09T08:32:42.737Z,21.32
2018-09-09T08:33:42.737Z,21.44
2018-09-09T08:34:42.737Z,21.47
2018-09-09T08:35:42.713Z,21.53
2018-09-09T08:36:42.710Z,21.54
2018-09-09T08:37:42.702Z,21.54
2018-09-09T08:38:42.694Z,21.59
2018-09-09T08:39:42.691Z,21.54
2018-09-09T08:40:42.680Z,21.64
2018-09-09T08:41:42.675Z,21.61
2018-09-09T08:42:42.666Z,21.65
2018-09-09T08:43:42.661Z,21.69
2018-09-09T08:44:42.650Z,21.72
2018-09-09T08:45:42.642Z,21.68
2018-09-09T08:46:42.632Z,21.83
2018-09-09T08:47:42.639Z,21.88
2018-09-09T08:48:42.637Z,21.90
2018-09-09T08:49:42.619Z,21.84
2018-09-09T08:50:42.609Z,21.91
2018-09-09T08:51:42.609Z,21.90
2018-09-09T08:52:42.599Z,21.92
2018-09-09T08:53:42.589Z,21.92
2018-09-09T08:54:42.585Z,21.90
2018-09-09T08:55:42.580Z,22.03
2018-09-09T08:56:42.569Z,22.00
2018-09-09T08:57:42.617Z,22.07
2018-09-09T08:58:42.552Z,22.02
2018-09-09T08:59:42.550Z,22.10
2018-09-09T09:00:42.539Z,22.07
2018-09-09T09:01:42.539Z,22.10
2018-09-09T09:02:42.530Z,22.03
2018-09-09T09:03:42.524Z,22.17
2018-09-09T09:04:42.515Z,22.09
2018-09-09T09:05:42.511Z,22.07
2018-09-09T09:06:42.501Z,22.10
2018-09-09T09:07:42.549Z,22.09
2018-09-09T09:08:42.487Z,21.92
2018-09-09T09:09:42.487Z,21.98
2018-09-09T09:10:42.479Z,21.91
2018-09-09T09:11:42.471Z,21.80
2018-09-09T09:12:42.454Z,21.77
2018-09-09T09:13:42.460Z,21.88
2018-09-09T09:14:42.458Z,21.83
2018-09-09T09:15:42.440Z,21.80
2018-09-09T09:16:42.432Z,21.75
2018-09-09T09:17:42.428Z,21.72
2018-09-09T09:18:42.494Z,21.84
2018-09-09T09:19:42.415Z,21.84
2018-09-09T09:20:42.554Z,21.99
2018-09-09T09:21:42.397Z,21.83
2018-09-09T09:22:42.395Z,22.05
2018-09-09T09:23:42.452Z,21.99
2018-09-09T09:24:42.383Z,22.14
2018-09-09T09:25:42.375Z,22.10
2018-09-09T09:26:42.367Z,22.15
2018-09-09T09:27:42.365Z,22.14
2018-09-09T09:28:42.352Z,22.15
2018-09-09T09:29:42.346Z,22.05
2018-09-09T09:30:42.387Z,22.06
2018-09-09T09:31:42.336Z,22.14
2018-09-09T09:32:42.324Z,22.12
2018-09-09T09:33:42.320Z,22.02
2018-09-09T09:34:42.314Z,22.03
2018-09-09T09:35:42.312Z,22.14
2018-09-09T09:36:42.301Z,22.14
2018-09-09T09:37:42.297Z,22.21
2018-09-09T09:38:42.288Z,22.42
2018-09-09T09:39:42.280Z,22.36
2018-09-09T09:40:42.275Z,22.49
2018-09-09T09:41:42.267Z,22.49
2018-09-09T09:42:42.267Z,22.47
2018-09-09T09:43:42.258Z,22.55
2018-09-09T09:44:42.271Z,22.54
2018-09-09T09:45:42.242Z,22.62
2018-09-09T09:46:42.236Z,22.51
2018-09-09T09:47:42.228Z,22.49
2018-09-09T09:48:42.226Z,22.57
2018-09-09T09:49:42.219Z,22.67
2018-09-09T09:50:42.206Z,22.61
2018-09-09T09:51:42.206Z,22.65
2018-09-09T09:52:42.201Z,22.67
2018-09-09T09:53:42.199Z,22.75
2018-09-09T09:54:42.186Z,22.72
2018-09-09T09:55:42.180Z,22.72
2018-09-09T09:56:42.175Z,22.80
2018-09-09T09:57:42.165Z,22.76
2018-09-09T09:58:42.161Z,22.86
2018-09-09T09:59:42.153Z,22.83
2018-09-09T10:00:42.140Z,22.79
2018-09-09T10:01:42.140Z,22.88
2018-09-09T10:02:42.133Z,22.94
2018-09-09T10:03:42.218Z,22.97
2018-09-09T10:04:42.117Z,23.10
2018-09-09T10:05:42.115Z,23.15
2018-09-09T10:06:42.107Z,23.31
2018-09-09T10:07:42.103Z,23.33
2018-09-09T10:08:42.099Z,23.27
2018-09-09T10:09:42.088Z,23.28
2018-09-09T10:10:42.082Z,23.32
2018-09-09T10:11:42.105Z,23.28
2018-09-09T10:12:42.074Z,23.35
2018-09-09T10:13:42.068Z,23.22
2018-09-09T10:14:42.058Z,23.32
2018-09-09T10:15:42.059Z,23.48
2018-09-09T10:16:42.049Z,23.42
2018-09-09T10:17:42.037Z,23.51
2018-09-09T10:18:42.037Z,23.55
2018-09-09T10:19:42.031Z,23.66
2018-09-09T10:20:42.028Z,23.55
2018-09-09T10:21:42.020Z,23.55
2018-09-09T10:22:42.017Z,23.79
2018-09-09T10:23:42.010Z,23.70
2018-09-09T10:24:41.996Z,23.76
2018-09-09T10:25:41.992Z,23.80
2018-09-09T10:26:41.987Z,23.88
2018-09-09T10:27:41.985Z,23.88
2018-09-09T10:28:41.974Z,23.90
2018-09-09T10:29:41.972Z,23.91
2018-09-09T10:30:41.967Z,23.85
2018-09-09T10:31:41.960Z,23.93
2018-09-09T10:32:41.954Z,23.95
2018-09-09T10:33:41.945Z,23.95
2018-09-09T10:34:41.945Z,23.95
2018-09-09T10:35:41.940Z,23.90
2018-09-09T10:36:41.932Z,23.87
2018-09-09T10:37:41.924Z,23.97
2018-09-09T10:38:41.922Z,23.93
2018-09-09T10:39:41.914Z,24.00
2018-09-09T10:40:41.940Z,23.91
2018-09-09T10:41:41.904Z,24.08
2018-09-09T10:42:41.895Z,24.02
2018-09-09T10:43:41.893Z,23.94
2018-09-09T10:44:41.887Z,23.88
2018-09-09T10:45:41.879Z,23.94
2018-09-09T10:46:41.946Z,23.88
2018-09-09T10:47:41.869Z,24.02
2018-09-09T10:48:41.862Z,23.98
2018-09-09T10:49:41.862Z,23.97
2018-09-09T10:50:41.852Z,23.88
2018-09-09T10:51:41.840Z,23.98
2018-09-09T10:52:41.845Z,24.09
2018-09-09T10:53:41.836Z,24.20
2018-09-09T10:54:41.836Z,24.09
2018-09-09T10:55:41.829Z,24.13
2018-09-09T10:56:41.816Z,24.12
2018-09-09T10:57:41.809Z,24.15
2018-09-09T10:58:41.829Z,24.25
2018-09-09T10:59:41.805Z,24.25
2018-09-09T11:00:41.795Z,24.40
2018-09-09T11:01:41.796Z,24.32
2018-09-09T11:02:41.787Z,24.40
2018-09-09T11:03:41.775Z,24.42
2018-09-09T11:04:41.770Z,24.47
2018-09-09T11:05:41.767Z,24.55
2018-09-09T11:06:41.760Z,24.53
2018-09-09T11:07:41.760Z,24.55
2018-09-09T11:08:41.751Z,24.64
2018-09-09T11:09:41.749Z,24.64
2018-09-09T11:10:41.739Z,24.47
2018-09-09T11:11:41.733Z,24.37
2018-09-09T11:12:41.762Z,24.47
2018-09-09T11:13:41.727Z,24.47
2018-09-09T11:14:41.718Z,24.30
2018-09-09T11:15:41.716Z,24.20
2018-09-09T11:16:41.708Z,24.22
2018-09-09T11:17:41.708Z,24.31
2018-09-09T11:18:41.699Z,24.25
2018-09-09T11:19:41.698Z,24.42
2018-09-09T11:20:41.689Z,24.46
2018-09-09T11:21:41.681Z,24.49
2018-09-09T11:22:41.683Z,24.60
2018-09-09T11:23:41.675Z,24.50
2018-09-09T11:24:41.695Z,24.78
2018-09-09T11:25:41.667Z,24.69
2018-09-09T11:26:41.657Z,24.81
2018-09-09T11:27:41.651Z,24.85
2018-09-09T11:28:41.648Z,24.73
2018-09-09T11:29:41.639Z,24.73
2018-09-09T11:30:41.636Z,24.85
2018-09-09T11:31:41.626Z,24.80
2018-09-09T11:32:41.627Z,24.85
2018-09-09T11:33:41.623Z,24.81
2018-09-09T11:34:41.614Z,24.76
2018-09-09T11:35:41.609Z,24.69
2018-09-09T11:36:41.610Z,24.65
2018-09-09T11:37:41.605Z,24.71
2018-09-09T11:38:41.595Z,24.81
2018-09-09T11:39:41.591Z,24.83
2018-09-09T11:40:41.603Z,24.87
2018-09-09T11:41:41.577Z,24.87
2018-09-09T11:42:41.578Z,25.02
2018-09-09T11:43:41.573Z,25.10
2018-09-09T11:44:41.565Z,25.09
2018-09-09T11:45:41.562Z,25.14
2018-09-09T11:46:41.552Z,25.09
2018-09-09T11:47:41.551Z,25.03
2018-09-09T11:48:41.545Z,24.98
2018-09-09T11:49:41.541Z,25.10
2018-09-09T11:50:41.530Z,24.98
2018-09-09T11:51:41.531Z,24.98
2018-09-09T11:52:41.525Z,24.98
2018-09-09T11:53:41.518Z,25.02
2018-09-09T11:54:41.516Z,25.03
2018-09-09T11:55:41.513Z,25.15
2018-09-09T11:56:41.505Z,25.27
2018-09-09T11:57:41.499Z,25.17
2018-09-09T11:58:41.496Z,25.25
2018-09-09T11:59:41.489Z,25.38
2018-09-09T12:00:41.482Z,25.43
2018-09-09T12:01:41.482Z,25.43
2018-09-09T12:02:41.472Z,25.55
2018-09-09T12:03:41.471Z,25.47
2018-09-09T12:04:41.464Z,25.52
2018-09-09T12:05:41.460Z,25.42
2018-09-09T12:06:41.461Z,25.42
2018-09-09T12:07:41.453Z,25.38
2018-09-09T12:08:41.443Z,25.32
2018-09-09T12:09:41.445Z,25.32
2018-09-09T12:10:41.437Z,25.36
2018-09-09T12:11:41.433Z,25.33
2018-09-09T12:12:41.427Z,25.43
2018-09-09T12:13:41.486Z,25.32
2018-09-09T12:14:41.416Z,25.42
2018-09-09T12:15:41.412Z,25.43
2018-09-09T12:16:41.409Z,25.51
2018-09-09T12:17:41.406Z,25.51
2018-09-09T12:18:41.399Z,25.54
2018-09-09T12:19:41.393Z,25.60
2018-09-09T12:20:41.388Z,25.67
2018-09-09T12:21:41.381Z,25.60
2018-09-09T12:22:41.381Z,25.69
2018-09-09T12:23:41.405Z,25.75
2018-09-09T12:24:41.372Z,25.72
2018-09-09T12:25:41.366Z,25.67
2018-09-09T12:26:41.364Z,25.72
2018-09-09T12:27:41.358Z,25.57
2018-09-09T12:28:41.349Z,25.65
2018-09-09T12:29:41.346Z,25.64
2018-09-09T12:30:41.342Z,25.70
2018-09-09T12:31:41.338Z,25.79
2018-09-09T12:32:41.347Z,25.76
2018-09-09T12:33:41.331Z,25.91
2018-09-09T12:34:41.328Z,25.88
2018-09-09T12:35:41.338Z,25.91
2018-09-09T12:36:41.317Z,25.97
2018-09-09T12:37:41.346Z,26.02
2018-09-09T12:38:41.307Z,25.92
2018-09-09T12:39:41.308Z,25.88
2018-09-09T12:40:41.295Z,25.91
2018-09-09T12:41:41.293Z,25.79
2018-09-09T12:42:41.291Z,25.77
2018-09-09T12:43:41.284Z,25.77
2018-09-09T12:44:41.287Z,25.80
2018-09-09T12:45:41.283Z,25.90
2018-09-09T12:46:41.271Z,25.91
2018-09-09T12:47:41.272Z,25.90
2018-09-09T12:48:41.264Z,25.91
2018-09-09T12:49:41.258Z,25.94
2018-09-09T12:50:41.253Z,25.94
2018-09-09T12:51:41.247Z,26.09
2018-09-09T12:52:41.244Z,25.99